Time;durP1;ratioP1;P1;durP2;ratioP2;P2;SDS_P1;SDS_P2;PMS_P1;PMS_P2;Temp;Humidity;BMP_temperature;BMP_pressure;BME280_temperature;BME280_humidity;BME280_pressure;Samples;Min_cycle;Max_cycle;Signal;HPM_P1;HPM_P2
2022/05/13 00:01:19;;;;;;;6.95;2.05;;;;;;;9.60;100.00;101472.38;4862012;29;20061;-78
2022/05/13 00:03:45;;;;;;;4.60;1.58;;;;;;;9.57;100.00;101468.25;4856603;29;20097;-79
2022/05/13 00:06:11;;;;;;;6.38;1.73;;;;;;;9.52;100.00;101463.34;4844227;29;20034;-76
2022/05/13 00:08:37;;;;;;;5.07;1.60;;;;;;;9.52;100.00;101468.59;4833109;29;20045;-78
2022/05/13 00:11:05;;;;;;;6.60;1.88;;;;;;;9.53;100.00;101475.50;4862824;29;20816;-77
2022/05/13 00:13:31;;;;;;;4.90;1.70;;;;;;;9.55;100.00;101481.44;4855415;29;20137;-78
2022/05/13 00:15:57;;;;;;;4.53;1.75;;;;;;;9.60;100.00;101478.44;4854482;29;20519;-77
2022/05/13 00:18:23;;;;;;;8.93;2.00;;;;;;;9.59;100.00;101471.56;4856571;29;20092;-78
2022/05/13 00:20:48;;;;;;;6.47;1.70;;;;;;;9.52;100.00;101468.59;4853428;29;20047;-77
2022/05/13 00:23:14;;;;;;;10.18;1.83;;;;;;;9.51;100.00;101471.31;4858105;29;20082;-79
2022/05/13 00:25:41;;;;;;;8.05;2.15;;;;;;;9.45;100.00;101475.25;4861115;29;20093;-77
2022/05/13 00:28:08;;;;;;;7.50;2.03;;;;;;;9.48;100.00;101459.31;4872644;29;20041;-77
2022/05/13 00:30:37;;;;;;;12.20;2.28;;;;;;;9.48;100.00;101463.72;4858307;29;20101;-78
2022/05/13 00:33:03;;;;;;;5.80;1.70;;;;;;;9.42;100.00;101456.34;4854502;29;20037;-80
2022/05/13 00:35:29;;;;;;;7.88;2.05;;;;;;;9.29;100.00;101454.69;4847187;29;20512;-81
2022/05/13 00:37:55;;;;;;;7.00;1.85;;;;;;;9.31;100.00;101465.06;4841581;29;20037;-78
2022/05/13 00:40:22;;;;;;;9.68;2.20;;;;;;;9.23;100.00;101451.72;4863568;29;20731;-78
2022/05/13 00:42:48;;;;;;;9.63;2.20;;;;;;;9.22;100.00;101463.16;4842559;29;20041;-77
2022/05/13 00:45:15;;;;;;;4.78;1.60;;;;;;;9.21;100.00;101453.63;4856256;29;20052;-78
2022/05/13 00:47:43;;;;;;;7.78;1.85;;;;;;;9.15;100.00;101455.78;4855086;29;20509;-79
2022/05/13 00:50:10;;;;;;;9.57;2.30;;;;;;;9.06;100.00;101451.28;4831687;29;20042;-80
2022/05/13 00:52:40;;;;;;;6.95;1.98;;;;;;;9.01;100.00;101442.94;4842870;29;20867;-79
2022/05/13 00:55:11;;;;;;;8.55;2.30;;;;;;;8.90;100.00;101438.53;4851400;29;20056;-76
2022/05/13 00:57:38;;;;;;;7.43;1.88;;;;;;;8.86;100.00;101447.56;4855005;29;20420;-78
2022/05/13 01:00:08;;;;;;;7.07;2.05;;;;;;;8.77;100.00;101445.66;4872756;29;20048;-77
2022/05/13 01:02:35;;;;;;;6.93;2.20;;;;;;;8.69;100.00;101443.63;4855824;29;20097;-78
2022/05/13 01:05:05;;;;;;;6.72;2.15;;;;;;;8.64;100.00;101440.53;4853904;29;20123;-77
2022/05/13 01:07:32;;;;;;;5.63;2.30;;;;;;;8.69;100.00;101441.00;4856996;29;20064;-78
2022/05/13 01:10:00;;;;;;;4.97;2.28;;;;;;;8.59;100.00;101437.44;4856401;29;20030;-79
2022/05/13 01:12:38;;;;;;;6.70;2.15;;;;;;;8.62;100.00;101437.19;4859286;29;20045;-78
2022/05/13 01:15:08;;;;;;;7.38;2.30;;;;;;;8.58;100.00;101449.66;4854659;29;20049;-77
2022/05/13 01:20:25;;;;;;;7.05;2.45;;;;;;;8.49;100.00;101442.50;4853888;29;20045;-78
2022/05/13 01:22:54;;;;;;;9.02;2.20;;;;;;;8.43;100.00;101435.16;4866632;29;20385;-78
2022/05/13 01:25:24;;;;;;;6.68;2.40;;;;;;;8.41;100.00;101430.97;4879947;29;20453;-79
2022/05/13 01:27:52;;;;;;;7.53;2.17;;;;;;;8.46;100.00;101431.47;4855803;29;20090;-78
2022/05/13 01:30:25;;;;;;;7.25;2.47;;;;;;;8.49;100.00;101433.84;4869117;29;20097;-80
2022/05/13 01:32:50;;;;;;;7.03;2.70;;;;;;;8.48;100.00;101435.63;4855692;29;20093;-78
2022/05/13 01:35:17;;;;;;;8.93;2.58;;;;;;;8.43;100.00;101429.09;4855399;29;20046;-79
2022/05/13 01:37:43;;;;;;;14.23;3.17;;;;;;;8.42;100.00;101423.03;4866453;29;20036;-79
2022/05/13 01:40:09;;;;;;;10.10;3.08;;;;;;;8.45;100.00;101433.25;4855568;29;20052;-79
2022/05/13 01:42:36;;;;;;;7.68;2.60;;;;;;;8.45;100.00;101435.03;4848810;29;20044;-80
2022/05/13 01:45:03;;;;;;;6.40;2.30;;;;;;;8.42;100.00;101427.41;4819123;29;20749;-79
2022/05/13 01:47:29;;;;;;;18.23;3.25;;;;;;;8.39;100.00;101420.59;4836396;29;20152;-80
2022/05/13 01:49:56;;;;;;;8.90;2.80;;;;;;;8.37;100.00;101432.97;4847583;29;20136;-78
2022/05/13 01:52:22;;;;;;;9.38;2.85;;;;;;;8.30;100.00;101419.50;4839356;29;20034;-78
2022/05/13 01:54:47;;;;;;;8.65;2.60;;;;;;;8.27;100.00;101422.38;4838769;29;20037;-78
2022/05/13 01:57:13;;;;;;;10.00;2.90;;;;;;;8.26;100.00;101418.06;4848291;29;20485;-79
2022/05/13 01:59:39;;;;;;;8.20;2.85;;;;;;;8.24;100.00;101419.16;4845119;29;20132;-78
2022/05/13 02:02:04;;;;;;;7.95;2.95;;;;;;;8.26;100.00;101425.09;4838256;29;20503;-77
2022/05/13 02:04:30;;;;;;;9.40;2.80;;;;;;;8.26;100.00;101414.63;4833672;29;20056;-78
2022/05/13 02:06:56;;;;;;;9.07;2.50;;;;;;;8.27;100.00;101413.69;4846615;29;20042;-77
2022/05/13 02:09:21;;;;;;;8.68;3.20;;;;;;;8.22;100.00;101408.81;4860096;29;21027;-77
2022/05/13 02:11:47;;;;;;;11.38;3.05;;;;;;;8.22;100.00;101411.41;4865484;29;20041;-77
2022/05/13 02:14:13;;;;;;;9.25;2.92;;;;;;;8.14;100.00;101403.34;4857318;29;20037;-77
2022/05/13 02:16:39;;;;;;;6.68;2.60;;;;;;;8.11;100.00;101407.00;4854649;29;20077;-79
2022/05/13 02:19:05;;;;;;;12.32;3.00;;;;;;;8.10;100.00;101414.94;4852859;29;20073;-78
2022/05/13 02:21:30;;;;;;;7.65;2.83;;;;;;;8.05;100.00;101412.69;4837640;29;20088;-77
2022/05/13 02:23:56;;;;;;;7.22;2.38;;;;;;;7.95;100.00;101409.09;4863460;29;20036;-78
2022/05/13 02:26:21;;;;;;;9.00;3.05;;;;;;;7.94;100.00;101415.25;4846877;29;20123;-78
2022/05/13 02:28:47;;;;;;;11.82;3.10;;;;;;;7.86;100.00;101402.75;4866084;29;20037;-78
2022/05/13 02:31:13;;;;;;;9.77;2.63;;;;;;;7.76;100.00;101405.22;4854909;29;20038;-80
2022/05/13 02:33:40;;;;;;;6.88;2.80;;;;;;;7.73;100.00;101409.81;4842942;29;20037;-77
2022/05/13 02:36:06;;;;;;;6.22;2.92;;;;;;;7.65;100.00;101412.13;4841218;29;20054;-77
2022/05/13 02:38:32;;;;;;;7.68;2.70;;;;;;;7.59;100.00;101402.97;4837865;29;20145;-78
2022/05/13 02:41:14;;;;;;;10.20;3.30;;;;;;;7.57;100.00;101399.63;4860332;29;20117;-77
2022/05/13 02:43:48;;;;;;;9.25;2.78;;;;;;;7.56;100.00;101403.22;4844260;29;20041;-77
2022/05/13 02:46:20;;;;;;;6.05;2.58;;;;;;;7.49;100.00;101396.75;4839712;29;20053;-77
2022/05/13 02:48:46;;;;;;;10.23;3.13;;;;;;;7.46;100.00;101395.22;4852629;29;20048;-78
2022/05/13 02:51:13;;;;;;;5.40;2.60;;;;;;;7.43;100.00;101390.19;4840753;29;20045;-79
2022/05/13 02:53:39;;;;;;;8.98;3.00;;;;;;;7.40;100.00;101385.19;4842048;29;20086;-78
2022/05/13 02:56:07;;;;;;;8.30;3.30;;;;;;;7.35;100.00;101379.50;4840525;29;20059;-77
2022/05/13 02:58:34;;;;;;;9.07;3.00;;;;;;;7.35;100.00;101369.03;4862655;29;20036;-78
2022/05/13 03:01:02;;;;;;;8.30;3.33;;;;;;;7.33;100.00;101378.75;4866110;29;20112;-78
2022/05/13 03:03:28;;;;;;;9.30;3.40;;;;;;;7.26;100.00;101377.53;4852126;29;20066;-79
2022/05/13 03:05:53;;;;;;;14.77;4.18;;;;;;;7.19;100.00;101375.34;4840856;29;20049;-80
2022/05/13 03:08:19;;;;;;;11.73;3.55;;;;;;;7.11;100.00;101369.84;4859271;29;20037;-78
2022/05/13 03:10:45;;;;;;;8.88;3.50;;;;;;;7.04;100.00;101363.38;4841699;29;20488;-78
2022/05/13 03:13:11;;;;;;;9.73;3.38;;;;;;;7.10;100.00;101378.63;4840570;29;20481;-79
2022/05/13 03:15:37;;;;;;;9.93;2.92;;;;;;;7.07;100.00;101376.22;4840658;29;20120;-80
2022/05/13 03:18:03;;;;;;;13.70;3.22;;;;;;;6.96;100.00;101366.53;4838027;29;20497;-79
2022/05/13 03:20:29;;;;;;;10.13;3.25;;;;;;;7.05;100.00;101366.84;4873955;29;20047;-80
2022/05/13 03:22:54;;;;;;;11.23;3.88;;;;;;;7.02;100.00;101373.91;4845994;29;20112;-78
2022/05/13 03:25:22;;;;;;;9.38;3.60;;;;;;;7.02;100.00;101371.31;4857215;29;20128;-77
2022/05/13 03:27:48;;;;;;;9.35;3.05;;;;;;;7.01;100.00;101361.00;4854192;29;20055;-80
2022/05/13 03:30:16;;;;;;;5.78;3.05;;;;;;;7.04;100.00;101368.59;4843560;29;20045;-78
2022/05/13 03:32:42;;;;;;;6.80;3.55;;;;;;;6.98;100.00;101356.81;4873465;29;20595;-77
2022/05/13 03:35:11;;;;;;;11.10;3.80;;;;;;;7.05;100.00;101365.06;4834490;29;20049;-77
2022/05/13 03:37:36;;;;;;;9.65;3.10;;;;;;;7.08;100.00;101358.78;4845551;29;20097;-77
2022/05/13 03:40:03;;;;;;;7.93;2.85;;;;;;;7.04;100.00;101339.91;4855423;29;20042;-78
2022/05/13 03:42:29;;;;;;;6.80;2.70;;;;;;;7.10;100.00;101360.38;4854882;29;20048;-77
2022/05/13 03:44:55;;;;;;;6.80;2.97;;;;;;;7.16;100.00;101356.47;4855806;29;20041;-82
2022/05/13 03:47:21;;;;;;;7.05;2.80;;;;;;;7.22;100.00;101346.44;4862797;29;20045;-80
2022/05/13 03:49:47;;;;;;;9.80;3.38;;;;;;;7.35;100.00;101349.00;4861162;29;20037;-80
2022/05/13 03:52:13;;;;;;;11.80;3.15;;;;;;;7.49;100.00;101344.53;4853133;29;20500;-80
2022/05/13 03:54:39;;;;;;;9.60;4.20;;;;;;;7.62;100.00;101349.72;4864281;29;20048;-80
2022/05/13 03:57:07;;;;;;;9.75;3.38;;;;;;;7.69;100.00;101341.31;4853711;29;20759;-80
2022/05/13 03:59:34;;;;;;;15.10;4.68;;;;;;;7.75;100.00;101335.63;4874966;29;20037;-78
2022/05/13 04:02:01;;;;;;;8.25;3.85;;;;;;;7.87;100.00;101323.44;4863718;29;20140;-80
2022/05/13 04:04:29;;;;;;;8.93;3.70;;;;;;;7.94;100.00;101315.97;4837517;29;20038;-79
2022/05/13 04:09:42;;;;;;;11.95;4.35;;;;;;;8.26;100.00;101321.38;4842599;29;20481;-80
2022/05/13 04:17:40;;;;;;;11.70;3.90;;;;;;;8.54;100.00;101327.97;4869192;29;20037;-79
2022/05/13 04:20:06;;;;;;;13.27;4.38;;;;;;;8.62;100.00;101311.66;4859463;29;20156;-80
2022/05/13 04:22:32;;;;;;;13.95;4.35;;;;;;;8.69;100.00;101314.66;4848020;29;20040;-79
2022/05/13 04:24:58;;;;;;;13.90;4.15;;;;;;;8.79;100.00;101314.75;4862671;29;20037;-79
2022/05/13 04:27:23;;;;;;;10.23;3.65;;;;;;;8.92;100.00;101315.44;4876769;29;20047;-78
2022/05/13 04:29:49;;;;;;;10.50;3.78;;;;;;;8.90;100.00;101326.03;4852076;29;20101;-79
2022/05/13 04:32:14;;;;;;;7.45;3.28;;;;;;;8.83;100.00;101319.63;4844692;29;20064;-80
2022/05/13 04:34:40;;;;;;;10.95;4.28;;;;;;;8.94;100.00;101319.59;4845018;29;20045;-77
2022/05/13 04:37:06;;;;;;;7.53;3.60;;;;;;;9.03;100.00;101312.00;4850934;29;20046;-78
2022/05/13 04:39:32;;;;;;;15.73;4.45;;;;;;;9.10;100.00;101308.75;4840946;29;20037;-78
2022/05/13 04:44:42;;;;;;;10.55;3.67;;;;;;;9.41;100.00;101321.16;4855118;29;20044;-78
2022/05/13 04:48:15;;;;;;;13.70;3.78;;;;;;;9.42;100.00;101307.94;4857731;29;20041;-79
2022/05/13 04:49:53;;;;;;;10.50;4.00;;;;;;;9.51;100.00;101308.97;4858403;29;20037;-79
2022/05/13 04:52:18;;;;;;;11.77;4.38;;;;;;;9.55;100.00;101319.06;4841090;29;20545;-79
2022/05/13 04:54:44;;;;;;;11.82;4.18;;;;;;;9.53;100.00;101320.13;4842373;29;20046;-82
2022/05/13 04:57:10;;;;;;;10.90;4.32;;;;;;;9.65;100.00;101324.38;4867470;29;20121;-78
2022/05/13 04:59:35;;;;;;;11.35;3.53;;;;;;;9.72;100.00;101338.63;4868723;29;20047;-79
2022/05/13 05:02:01;;;;;;;11.88;4.53;;;;;;;9.74;100.00;101339.34;4855585;29;20029;-79
2022/05/13 05:04:26;;;;;;;15.73;3.60;;;;;;;9.82;100.00;101345.75;4858970;29;20049;-80
2022/05/13 05:06:52;;;;;;;11.52;3.30;;;;;;;9.74;100.00;101357.69;4857143;29;20161;-78
2022/05/13 05:09:18;;;;;;;14.25;3.30;;;;;;;9.65;100.00;101355.81;4862903;29;20568;-82
2022/05/13 05:11:43;;;;;;;9.38;3.38;;;;;;;9.61;100.00;101359.66;4860169;29;20505;-79
2022/05/13 05:14:09;;;;;;;9.73;3.72;;;;;;;9.57;100.00;101360.00;4837844;29;20413;-78
2022/05/13 05:16:34;;;;;;;11.18;3.83;;;;;;;9.59;100.00;101358.09;4857761;29;20109;-78
2022/05/13 05:19:00;;;;;;;11.80;3.83;;;;;;;9.60;100.00;101354.53;4841812;29;20045;-78
2022/05/13 05:21:26;;;;;;;11.05;3.45;;;;;;;9.67;100.00;101366.16;4854295;29;20045;-79
2022/05/13 05:23:52;;;;;;;10.30;3.92;;;;;;;9.78;100.00;101357.44;4844148;29;20456;-79
2022/05/13 05:26:17;;;;;;;8.82;3.75;;;;;;;9.86;100.00;101368.13;4858758;29;20133;-77
2022/05/13 05:28:43;;;;;;;7.85;3.40;;;;;;;10.02;100.00;101372.91;4856032;29;20056;-79
2022/05/13 05:31:11;;;;;;;13.00;3.50;;;;;;;9.98;100.00;101372.31;4858294;29;20041;-81
2022/05/13 05:33:38;;;;;;;10.63;3.50;;;;;;;9.97;100.00;101367.22;4854986;29;20026;-78
2022/05/13 05:36:05;;;;;;;12.13;3.58;;;;;;;9.91;100.00;101366.78;4846277;29;20131;-79
2022/05/13 05:38:31;;;;;;;10.77;3.50;;;;;;;10.08;100.00;101372.41;4851991;29;20116;-79
2022/05/13 05:40:59;;;;;;;12.25;3.35;;;;;;;10.12;100.00;101372.00;4874789;29;20179;-79
2022/05/13 05:43:27;;;;;;;9.68;3.13;;;;;;;10.23;100.00;101372.94;4859051;29;20408;-78
2022/05/13 05:45:53;;;;;;;12.93;3.70;;;;;;;10.25;100.00;101368.38;4842779;29;20045;-80
2022/05/13 05:48:22;;;;;;;9.27;2.97;;;;;;;10.33;100.00;101373.84;4858460;29;20068;-78
2022/05/13 05:50:53;;;;;;;10.20;2.88;;;;;;;10.36;100.00;101370.97;4841393;29;20488;-78
2022/05/13 05:57:13;;;;;;;13.15;3.25;;;;;;;10.44;100.00;101373.75;4841780;29;20051;-79
2022/05/13 05:58:57;;;;;;;10.85;3.35;;;;;;;10.52;100.00;101378.34;4847468;29;20473;-79
2022/05/13 06:01:23;;;;;;;9.80;3.08;;;;;;;10.52;100.00;101378.34;4864460;29;20534;-79
2022/05/13 06:03:48;;;;;;;13.75;3.30;;;;;;;10.63;100.00;101382.69;4856583;29;20037;-77
2022/05/13 06:06:14;;;;;;;13.15;3.15;;;;;;;10.73;100.00;101383.53;4843387;29;20045;-79
2022/05/13 06:08:40;;;;;;;7.10;2.40;;;;;;;10.71;100.00;101378.44;4835954;29;20038;-79
2022/05/13 06:11:07;;;;;;;10.93;3.47;;;;;;;10.75;100.00;101376.38;4858093;29;20144;-79
2022/05/13 06:13:33;;;;;;;9.40;3.20;;;;;;;10.70;100.00;101371.53;4862392;29;20073;-78
2022/05/13 06:15:58;;;;;;;8.20;3.22;;;;;;;10.82;100.00;101385.38;4864476;29;20088;-78
2022/05/13 06:18:24;;;;;;;5.93;2.70;;;;;;;10.75;100.00;101383.41;4858733;29;20148;-78
2022/05/13 06:20:49;;;;;;;14.13;3.10;;;;;;;10.73;100.00;101370.44;4846149;29;20075;-79
2022/05/13 06:23:15;;;;;;;9.68;2.90;;;;;;;10.72;100.00;101355.66;4864679;29;20045;-78
2022/05/13 06:25:40;;;;;;;7.32;2.90;;;;;;;10.70;100.00;101361.03;4859938;29;20030;-80
2022/05/13 06:28:06;;;;;;;9.60;3.35;;;;;;;10.74;100.00;101348.47;4858676;29;20052;-79
2022/05/13 06:30:35;;;;;;;11.35;2.67;;;;;;;10.52;100.00;101358.19;4853891;29;20041;-78
2022/05/13 06:33:01;;;;;;;5.53;2.97;;;;;;;10.35;100.00;101355.34;4862231;29;20036;-78
2022/05/13 06:35:29;;;;;;;6.90;2.83;;;;;;;10.21;100.00;101348.59;4837026;29;20041;-79
2022/05/13 06:37:55;;;;;;;12.93;3.40;;;;;;;10.26;100.00;101359.53;4852463;29;20489;-80
2022/05/13 06:40:22;;;;;;;8.65;3.30;;;;;;;10.31;100.00;101352.97;4844676;29;20063;-80
2022/05/13 06:42:49;;;;;;;9.98;3.20;;;;;;;10.36;100.00;101357.84;4860865;29;20038;-78
2022/05/13 06:45:15;;;;;;;5.47;2.88;;;;;;;10.23;100.00;101359.81;4849108;29;20460;-79
2022/05/13 06:47:42;;;;;;;11.63;3.17;;;;;;;10.11;100.00;101356.41;4864507;29;20040;-79
2022/05/13 06:50:11;;;;;;;12.35;3.08;;;;;;;10.03;100.00;101362.28;4834662;29;20599;-79
2022/05/13 06:52:38;;;;;;;8.93;3.05;;;;;;;9.99;100.00;101355.66;4850949;29;20116;-79
2022/05/13 06:55:07;;;;;;;9.45;3.33;;;;;;;9.97;100.00;101352.34;4848354;29;20041;-79
2022/05/13 06:57:32;;;;;;;8.60;3.42;;;;;;;10.02;100.00;101363.28;4869974;29;20041;-79
2022/05/13 06:59:58;;;;;;;10.52;4.13;;;;;;;10.16;100.00;101364.72;4864587;29;20094;-79
2022/05/13 07:02:24;;;;;;;10.43;3.60;;;;;;;10.31;100.00;101381.00;4858856;29;20041;-80
2022/05/13 07:04:50;;;;;;;7.47;3.55;;;;;;;10.21;100.00;101359.09;4851001;29;20042;-80
2022/05/13 07:07:15;;;;;;;11.15;3.85;;;;;;;10.22;100.00;101360.75;4859183;29;20086;-80
2022/05/13 07:09:41;;;;;;;10.77;3.97;;;;;;;10.27;100.00;101369.06;4865109;29;20045;-78
2022/05/13 07:12:08;;;;;;;6.22;3.25;;;;;;;10.28;100.00;101360.25;4859141;29;20082;-78
2022/05/13 07:14:35;;;;;;;10.23;4.00;;;;;;;10.26;100.00;101356.91;4876523;29;20745;-81
2022/05/13 07:17:01;;;;;;;8.70;3.65;;;;;;;10.26;100.00;101349.88;4846856;29;20029;-79
2022/05/13 07:19:27;;;;;;;9.30;3.92;;;;;;;10.26;100.00;101362.16;4852542;29;20050;-78
2022/05/13 07:21:53;;;;;;;14.68;4.00;;;;;;;10.43;100.00;101379.94;4859509;29;20041;-78
2022/05/13 07:24:19;;;;;;;12.27;4.22;;;;;;;10.50;100.00;101372.41;4842613;29;20045;-79
2022/05/13 07:26:44;;;;;;;9.40;3.67;;;;;;;10.81;100.00;101381.13;4850393;29;20579;-78
2022/05/13 07:29:10;;;;;;;11.10;3.65;;;;;;;11.07;100.00;101391.94;4865242;29;20049;-77
2022/05/13 07:31:35;;;;;;;10.13;3.75;;;;;;;11.19;100.00;101395.31;4858216;29;20045;-79
2022/05/13 07:34:02;;;;;;;11.43;3.40;;;;;;;11.47;100.00;101383.22;4853083;29;20076;-81
2022/05/13 07:36:27;;;;;;;15.32;4.25;;;;;;;11.62;100.00;101388.88;4857722;29;20145;-78
2022/05/13 07:41:37;;;;;;;14.65;3.65;;;;;;;11.61;100.00;101381.97;4846177;29;20038;-77
2022/05/13 07:44:03;;;;;;;11.07;3.80;;;;;;;11.63;100.00;101394.97;4841802;29;20045;-78
2022/05/13 07:46:29;;;;;;;10.05;3.83;;;;;;;11.63;100.00;101381.81;4865181;29;20098;-78
2022/05/13 07:48:54;;;;;;;12.15;3.90;;;;;;;11.65;100.00;101393.84;4851803;29;20042;-77
2022/05/13 07:51:23;;;;;;;17.05;4.05;;;;;;;11.67;100.00;101401.59;4840811;29;20041;-77
2022/05/13 07:53:49;;;;;;;13.88;4.07;;;;;;;11.59;100.00;101396.22;4846400;29;20128;-78
2022/05/13 07:56:14;;;;;;;15.38;4.22;;;;;;;11.58;100.00;101400.63;4861235;29;20136;-79
2022/05/13 07:58:40;;;;;;;15.55;4.82;;;;;;;11.58;100.00;101403.25;4879269;29;20037;-77
2022/05/13 08:01:06;;;;;;;12.15;3.92;;;;;;;11.55;100.00;101400.09;4858173;29;20791;-78
2022/05/13 08:03:31;;;;;;;15.57;4.18;;;;;;;11.73;100.00;101411.56;4854910;29;20041;-79
2022/05/13 08:06:03;;;;;;;15.07;4.10;;;;;;;11.82;100.00;101410.72;4833486;29;20080;-80
2022/05/13 08:08:34;;;;;;;12.45;4.05;;;;;;;11.87;100.00;101405.91;4861944;29;20132;-78
2022/05/13 08:11:01;;;;;;;14.75;4.28;;;;;;;11.91;100.00;101377.56;4845377;29;20052;-77
2022/05/13 08:13:30;;;;;;;15.73;4.45;;;;;;;12.14;100.00;101401.75;4856657;29;20076;-79
2022/05/13 08:15:58;;;;;;;15.95;3.75;;;;;;;12.29;100.00;101396.88;4859115;29;20325;-78
2022/05/13 08:18:23;;;;;;;12.10;4.00;;;;;;;12.45;100.00;101405.03;4851629;29;20046;-80
2022/05/13 08:20:50;;;;;;;11.85;4.10;;;;;;;12.58;100.00;101404.72;4843407;29;20065;-79
2022/05/13 08:23:16;;;;;;;20.23;4.20;;;;;;;12.59;100.00;101409.00;4867558;29;20042;-78
2022/05/13 08:25:44;;;;;;;19.15;4.40;;;;;;;12.76;100.00;101414.47;4835680;29;20052;-77
2022/05/13 08:28:11;;;;;;;12.15;3.80;;;;;;;12.84;100.00;101423.31;4860697;29;20097;-78
2022/05/13 08:30:38;;;;;;;18.92;4.40;;;;;;;12.88;99.97;101420.38;4871367;29;20041;-78
2022/05/13 08:33:08;;;;;;;18.80;4.18;;;;;;;12.96;99.15;101421.34;4853530;29;20496;-81
2022/05/13 08:35:36;;;;;;;12.60;3.75;;;;;;;13.01;100.00;101413.81;4843792;29;20037;-77
2022/05/13 08:38:02;;;;;;;13.35;3.67;;;;;;;13.19;99.70;101427.03;4851288;29;20132;-78
2022/05/13 08:40:45;;;;;;;12.35;4.25;;;;;;;13.33;97.80;101433.63;4854373;29;20636;-78
2022/05/13 08:43:15;;;;;;;16.52;3.88;;;;;;;13.28;97.26;101433.25;4871444;29;20045;-77
2022/05/13 08:45:49;;;;;;;9.75;3.85;;;;;;;13.38;99.34;101431.38;4860475;29;20041;-81
2022/05/13 08:48:20;;;;;;;16.17;4.50;;;;;;;13.47;100.00;101428.84;4880318;29;20041;-78
2022/05/13 08:51:07;;;;;;;17.55;4.35;;;;;;;13.54;97.00;101433.38;4854829;29;20097;-79
2022/05/13 08:53:51;;;;;;;15.38;4.05;;;;;;;13.53;97.21;101433.53;4864041;29;20045;-79
2022/05/13 08:56:25;;;;;;;12.60;4.05;;;;;;;13.53;96.06;101438.81;4882509;29;20068;-77
2022/05/13 08:59:02;;;;;;;13.43;4.05;;;;;;;13.51;97.30;101436.31;4882190;29;20923;-78
2022/05/13 09:01:40;;;;;;;11.07;4.30;;;;;;;13.69;96.94;101446.03;4881441;29;20041;-79
2022/05/13 09:04:10;;;;;;;12.63;3.88;;;;;;;13.83;95.71;101446.34;4843338;29;20140;-78
2022/05/13 09:06:55;;;;;;;17.50;4.45;;;;;;;13.85;93.76;101445.38;4834816;29;20041;-78
2022/05/13 09:09:21;;;;;;;19.17;4.32;;;;;;;13.82;95.77;101438.56;4864796;29;20060;-79
2022/05/13 09:12:07;;;;;;;12.70;3.97;;;;;;;13.78;96.76;101443.31;4853554;29;20136;-76
2022/05/13 09:14:44;;;;;;;14.95;4.00;;;;;;;13.82;95.70;101439.44;4858278;29;20721;-79
2022/05/13 09:17:32;;;;;;;13.70;3.90;;;;;;;14.04;93.75;101452.31;4834177;29;20041;-81
2022/05/13 09:20:08;;;;;;;19.02;4.32;;;;;;;14.30;94.71;101445.25;4854411;29;20045;-79
2022/05/13 09:22:52;;;;;;;13.05;3.80;;;;;;;14.58;91.39;101453.06;4847055;29;20069;-78
2022/05/13 09:25:22;;;;;;;18.08;4.85;;;;;;;14.75;90.64;101444.25;4855167;29;20473;-77
2022/05/13 09:27:51;;;;;;;14.68;4.18;;;;;;;14.85;89.61;101445.97;4874008;29;20120;-77
2022/05/13 09:30:22;;;;;;;18.52;4.50;;;;;;;15.03;89.22;101441.44;4859680;29;20041;-79
2022/05/13 09:32:48;;;;;;;17.25;4.22;;;;;;;15.02;85.63;101433.66;4847051;29;20049;-79
2022/05/13 09:35:41;;;;;;;17.75;4.00;;;;;;;15.14;86.50;101454.34;4838492;29;20037;-77
2022/05/13 09:38:15;;;;;;;12.60;4.10;;;;;;;15.13;87.99;101443.94;4857714;29;20064;-78
2022/05/13 09:40:41;;;;;;;15.45;3.58;;;;;;;15.42;87.96;101448.81;4862914;29;20073;-78
2022/05/13 09:43:07;;;;;;;14.77;3.83;;;;;;;15.80;87.11;101443.94;4863674;29;20037;-79
2022/05/13 09:45:34;;;;;;;10.18;3.60;;;;;;;16.14;81.84;101453.56;4868531;29;20045;-80
2022/05/13 09:48:05;;;;;;;11.57;3.33;;;;;;;16.21;80.62;101449.25;4853172;29;20072;-78
2022/05/13 09:50:50;;;;;;;14.73;3.50;;;;;;;16.05;81.22;101454.53;4841856;29;20049;-81
2022/05/13 09:53:26;;;;;;;11.93;3.45;;;;;;;15.93;82.81;101448.75;4854168;29;20049;-78
2022/05/13 09:55:54;;;;;;;13.38;3.63;;;;;;;15.73;83.41;101462.31;4851730;29;20045;-79
2022/05/13 09:58:23;;;;;;;12.52;3.50;;;;;;;15.65;84.26;101448.19;4863944;29;20045;-78
2022/05/13 10:00:52;;;;;;;16.45;3.95;;;;;;;15.86;82.51;101448.59;4857418;29;20119;-78
2022/05/13 10:03:23;;;;;;;14.80;4.30;;;;;;;16.69;81.31;101454.66;4857483;29;20040;-78
2022/05/13 10:06:17;;;;;;;13.27;3.58;;;;;;;17.46;76.71;101451.38;4856893;29;20049;-78
2022/05/13 10:15:08;;;;;;;14.27;3.47;;;;;;;16.45;79.17;101437.00;4856449;29;20556;-79
2022/05/13 10:17:34;;;;;;;11.15;3.55;;;;;;;16.32;77.15;101443.63;4868486;29;20049;-78
2022/05/13 10:20:09;;;;;;;9.98;3.03;;;;;;;16.17;80.11;101453.25;4854657;29;20101;-79
2022/05/13 10:22:43;;;;;;;14.77;3.28;;;;;;;16.01;80.24;101440.84;4843975;29;20126;-81
2022/05/13 10:25:17;;;;;;;11.55;3.42;;;;;;;15.90;84.67;101441.16;4860136;29;20085;-79
2022/05/13 10:27:45;;;;;;;12.13;3.80;;;;;;;15.54;80.18;101449.34;4869992;29;20045;-78
2022/05/13 10:30:16;;;;;;;11.93;3.20;;;;;;;15.27;84.44;101445.94;4868879;29;20033;-78
2022/05/13 10:32:50;;;;;;;15.90;2.85;;;;;;;14.96;86.81;101459.72;4858505;29;20049;-77
2022/05/13 10:35:21;;;;;;;10.93;3.20;;;;;;;14.56;93.86;101469.03;4833040;29;20688;-78
2022/05/13 10:38:11;;;;;;;15.05;3.35;;;;;;;13.69;100.00;101506.66;4851708;29;20033;-79
2022/05/13 10:40:42;;;;;;;15.45;3.63;;;;;;;13.11;100.00;101508.59;4861163;29;20085;-79
2022/05/13 10:43:22;;;;;;;6.15;1.98;;;;;;;12.75;100.00;101518.09;4853916;29;20038;-79
2022/05/13 10:45:51;;;;;;;11.15;2.15;;;;;;;12.63;100.00;101497.22;4849546;29;20432;-80
2022/05/13 10:48:30;;;;;;;8.73;2.10;;;;;;;12.75;100.00;101494.41;4856379;29;20075;-79
2022/05/13 10:51:22;;;;;;;9.20;2.15;;;;;;;13.07;100.00;101491.41;4870625;29;20033;-78
2022/05/13 10:53:57;;;;;;;9.85;2.13;;;;;;;13.31;100.00;101484.81;4852803;29;20081;-77
2022/05/13 10:56:40;;;;;;;8.00;2.45;;;;;;;13.90;100.00;101494.06;4868463;29;20041;-79
2022/05/13 10:59:21;;;;;;;4.68;2.00;;;;;;;14.88;100.00;101487.88;4865364;29;20045;-79
2022/05/13 11:02:21;;;;;;;6.78;2.25;;;;;;;14.87;100.00;101476.50;4854141;29;20124;-79
2022/05/13 11:04:52;;;;;;;5.13;2.10;;;;;;;15.40;100.00;101490.44;4858280;29;20045;-78
2022/05/13 11:07:37;;;;;;;5.65;1.70;;;;;;;16.13;100.00;101487.13;4863301;29;20540;-79
2022/05/13 11:10:20;;;;;;;7.35;2.10;;;;;;;16.41;100.00;101489.47;4857093;29;20068;-78
2022/05/13 11:13:12;;;;;;;7.95;2.25;;;;;;;16.88;94.35;101488.75;4858995;29;20504;-77
2022/05/13 11:15:47;;;;;;;7.90;2.50;;;;;;;17.12;90.66;101485.19;4841329;29;20060;-78
2022/05/13 11:18:38;;;;;;;8.77;2.20;;;;;;;16.91;95.37;101482.28;4861759;29;20042;-79
2022/05/13 11:21:21;;;;;;;6.75;2.38;;;;;;;16.75;91.02;101485.78;4865892;29;20064;-78
2022/05/13 11:27:17;;;;;;;6.80;2.65;;;;;;;15.25;100.00;101479.66;4859644;29;20057;-77
2022/05/13 11:29:43;;;;;;;10.30;3.03;;;;;;;14.72;100.00;101480.69;4816917;29;20100;-79
2022/05/13 11:32:13;;;;;;;13.65;3.67;;;;;;;14.35;100.00;101473.81;4859349;29;20492;-78
2022/05/13 11:35:07;;;;;;;10.90;3.38;;;;;;;14.44;100.00;101486.09;4846843;29;20106;-80
2022/05/13 11:37:39;;;;;;;11.00;3.90;;;;;;;14.83;100.00;101479.63;4832608;29;20412;-80
2022/05/13 11:40:33;;;;;;;15.45;3.90;;;;;;;15.86;100.00;101485.63;4842794;29;20037;-79
2022/05/13 11:43:27;;;;;;;11.63;3.00;;;;;;;15.99;92.72;101493.06;4856705;29;20516;-80
2022/05/13 11:46:01;;;;;;;11.05;2.90;;;;;;;15.98;100.00;101501.19;4859083;29;20041;-78
2022/05/13 11:48:30;;;;;;;8.93;3.47;;;;;;;15.68;100.00;101490.19;4860368;29;20053;-78
2022/05/13 11:51:10;;;;;;;10.90;3.30;;;;;;;15.34;100.00;101505.13;4841360;29;20034;-78
2022/05/13 11:53:43;;;;;;;6.97;2.80;;;;;;;14.83;100.00;101540.38;4861707;29;20063;-78
2022/05/13 11:56:31;;;;;;;8.15;3.30;;;;;;;14.08;100.00;101543.34;4866254;29;20056;-78
2022/05/13 11:59:03;;;;;;;9.90;2.67;;;;;;;13.56;100.00;101531.59;4870782;29;20037;-78